Lincoln Park, NJ

07:01 PM EDT on Agosto 27, 2014 (GMT -0400)
KNJMONTV2 | Change Station
CLOSE
Current Station
Personal Weather Stations
Location: Montville, NJ
Elevation: 410 ft
Nearby Weather Stations

Elev 410 ft 40.89 °N, 74.35 °W | Updated 4 seconds ago

Clear
Despexado
83.2 °F
Feels Like 88 °F
N
0.0
Vento Variable Vento from LNL
Gusts 0.0 mph

Hoxe
High -- | Low -- °F
--% Chance of Precip.
Yesterday
High -- | Low -- °F
Precip. -- pol
6:19 AM 7:37 PM
Waxing Crescent, 5% visible
Presión 29.88 pol
Visibilidade 10.0 Millas
Nubes Despexado
Sensación de Calor 88 °F
Nivel de Rosada 72 °F
Humidade 68%
Rainfall 0.00 pol
Fondo da neve Not available.
UV 0 out of 12
Pollen 10.00 out of 12
Ozone Unhealthy for Sensitive Groups
PM2.5 Moderate
Flu Activity Not available.
METAR KCDW 272253Z VRB03KT 10SM CLR 30/19 A2987 RMK AO2 SLP118 T03000194

More Conditions Fewer Conditions

Presión 29.88 pol
Visibilidade 10.0 Millas
Nubes Despexado
Sensación de Calor 88 °F
Nivel de Rosada 72 °F
Humidade 68%
Rainfall 0.00 pol
Fondo da neve Not available.
UV 0 out of 12
Pollen 10.00 out of 12
Ozone Unhealthy for Sensitive Groups
PM2.5 Moderate
Flu Activity Not available.
METAR KCDW 272253Z VRB03KT 10SM CLR 30/19 A2987 RMK AO2 SLP118 T03000194

More Conditions Fewer Conditions

10-Day Weather Forecast

Almanac

Astronomía

Aug. 27, 2014 Rise Set
Tempo actual 6:19 AM EDT 7:37 PM EDT
Crepúsculo civil 5:50 AM EDT 8:06 PM EDT
Crepúsculo náutico 5:16 AM EDT 8:40 PM EDT
Crepúsculo astronómico 4:40 AM EDT 9:16 PM EDT
Lúa 8:13 AM EDT 8:27 PM EDT
Lonxitude da luz visíbel 14h 15m
Length of Day
13h 18m
Tomorrow will be 2m 34s shorter.
Waxing Crescent, 5% of the Moon is Illuminated
Hoxe
Waxing Crescent
Sep 2
Cuarto crescente
Sep 8
Lúa chea
Sep 15
Cuarto menguante
Sep 24
New

Today's Extremes

State Highs State Lows

Community

WunderPhotos

Upload Photos

1,747,814 photos uploaded!

Nearby

Air Quality

  Air Quality AQ Index Pollutant
Yesterday Good
OZONE
Yesterday Good
PM2.5
Actual Unhealthy for Sensitive Groups
OZONE
Actual Moderate
PM2.5
Mércores Moderate
OZONE
Mércores Moderate
PM2.5
Xoves Good
OZONE
Xoves Good
PM2.5

Snow Depth

Station Depth Elevation
No new snow has been reported.

Earthquake Activity

Cidade Distance Mag. Time & Date
No recent earthquake activity has been reported nearby.
Minimum magnitude displayed is 2.5.

Coastal Water Temperatures

Lugar Temperatura
Sandy Hook, NJ 79.0 °F
The Battery, NY 75.0 °F
Bergen Point West Reach, NJ 75.0 °F
Kings Point, NY 75.9 °F

Nearby Weather Stations